Time;durP1;ratioP1;P1;durP2;ratioP2;P2;SDS_P1;SDS_P2;PMS_P1;PMS_P2;Temp;Humidity;BMP_temperature;BMP_pressure;BME280_temperature;BME280_humidity;BME280_pressure;Samples;Min_cycle;Max_cycle;Signal;HPM_P1;HPM_P2
2022/09/12 00:01:08;;;;;;;12.63;6.18;;;;;;;24.66;48.65;101358.44;5031150;28;20021;-48
2022/09/12 00:03:34;;;;;;;9.23;5.15;;;;;;;24.62;49.03;101376.53;5031361;28;20372;-49
2022/09/12 00:06:00;;;;;;;11.93;6.10;;;;;;;24.33;50.35;101372.94;5030975;28;20032;-49
2022/09/12 00:08:27;;;;;;;21.83;7.05;;;;;;;24.17;51.78;101367.56;5032491;28;20021;-48
2022/09/12 00:10:53;;;;;;;13.02;5.90;;;;;;;23.98;50.92;101367.41;5038127;28;20041;-49
2022/09/12 00:13:19;;;;;;;47.40;7.25;;;;;;;23.72;51.54;101365.13;5032263;28;20033;-49
2022/09/12 00:15:45;;;;;;;15.90;5.95;;;;;;;23.44;54.11;101368.22;5029423;28;20479;-49
2022/09/12 00:18:15;;;;;;;37.25;9.40;;;;;;;23.82;53.49;101368.63;5039336;28;20033;-50
2022/09/12 00:20:45;;;;;;;18.38;6.70;;;;;;;23.94;54.05;101369.09;5039860;28;20021;-49
2022/09/12 00:23:13;;;;;;;13.02;6.47;;;;;;;23.77;52.67;101368.63;5042276;28;20030;-49
2022/09/12 00:25:46;;;;;;;13.73;6.30;;;;;;;23.48;52.66;101362.16;5037753;28;20148;-50
2022/09/12 00:28:15;;;;;;;11.13;5.57;;;;;;;23.33;53.37;101369.34;5032598;28;20021;-52
2022/09/12 00:30:46;;;;;;;18.83;7.45;;;;;;;23.25;54.15;101372.63;5039504;28;20036;-50
2022/09/12 00:33:15;;;;;;;10.85;6.13;;;;;;;23.22;54.18;101365.00;5040206;28;20068;-51
2022/09/12 00:35:47;;;;;;;15.75;5.85;;;;;;;23.29;54.64;101364.72;5030553;28;20030;-51
2022/09/12 00:38:15;;;;;;;14.98;6.57;;;;;;;23.26;56.29;101366.06;5035545;28;20381;-50
2022/09/12 00:40:42;;;;;;;14.45;6.03;;;;;;;23.42;55.42;101364.91;5038942;28;20037;-48
2022/09/12 00:43:29;;;;;;;11.65;6.78;;;;;;;23.56;54.62;101359.69;5031370;28;20049;-48
2022/09/12 00:46:05;;;;;;;18.70;6.72;;;;;;;23.38;54.39;101363.06;5037524;28;20034;-49
2022/09/12 00:48:38;;;;;;;20.38;5.63;;;;;;;23.43;54.34;101360.28;5047694;28;20036;-48
2022/09/12 00:51:05;;;;;;;10.65;5.63;;;;;;;23.31;54.45;101359.78;5053043;28;20032;-49
2022/09/12 00:53:31;;;;;;;18.25;7.05;;;;;;;23.38;55.60;101358.41;5054498;28;20044;-47
2022/09/12 00:55:58;;;;;;;15.23;7.15;;;;;;;23.42;55.89;101361.38;5047436;28;20471;-49
2022/09/12 00:58:54;;;;;;;14.13;6.13;;;;;;;23.09;55.01;101362.84;5036887;28;20037;-49
2022/09/12 01:01:21;;;;;;;13.13;6.75;;;;;;;23.15;56.15;101357.13;5039408;28;20045;-49
2022/09/12 01:03:47;;;;;;;15.20;6.35;;;;;;;22.91;55.22;101361.53;5054141;28;20094;-48
2022/09/12 01:06:39;;;;;;;17.73;6.25;;;;;;;23.02;56.20;101365.06;5049809;28;20127;-48
2022/09/12 01:09:05;;;;;;;31.27;7.22;;;;;;;22.97;56.25;101365.06;5038635;28;20029;-48
2022/09/12 01:11:36;;;;;;;19.10;7.53;;;;;;;22.72;56.50;101366.72;5045160;28;20040;-51
2022/09/12 01:14:02;;;;;;;11.75;6.43;;;;;;;22.85;56.39;101378.97;5053243;28;20025;-48
2022/09/12 01:16:29;;;;;;;12.50;6.30;;;;;;;22.72;55.66;101371.34;5052893;28;20483;-48
2022/09/12 01:19:11;;;;;;;23.88;6.75;;;;;;;22.64;56.71;101364.53;5054300;28;20017;-51
2022/09/12 01:21:52;;;;;;;12.18;6.28;;;;;;;22.62;55.98;101366.72;5052071;28;20035;-48
2022/09/12 01:24:42;;;;;;;12.55;5.93;;;;;;;22.51;56.58;101374.09;5052752;28;20032;-49
2022/09/12 01:27:34;;;;;;;16.05;7.50;;;;;;;22.34;56.71;101359.91;5041179;28;20041;-48
2022/09/12 01:30:22;;;;;;;17.27;7.30;;;;;;;22.33;56.18;101375.44;5034018;28;20060;-49
2022/09/12 01:33:07;;;;;;;24.25;6.90;;;;;;;22.25;57.15;101367.78;5052613;28;20036;-47
2022/09/12 01:36:10;;;;;;;24.35;7.55;;;;;;;22.21;56.64;101377.63;5051046;28;20054;-47
2022/09/12 01:38:44;;;;;;;18.55;6.88;;;;;;;21.92;58.63;101385.41;5032994;28;20046;-50
2022/09/12 01:41:24;;;;;;;20.27;7.47;;;;;;;22.00;57.72;101378.63;5042505;28;20475;-48
2022/09/12 01:44:11;;;;;;;18.00;7.18;;;;;;;22.00;58.81;101384.91;5052681;28;20064;-48
2022/09/12 01:46:51;;;;;;;16.70;7.45;;;;;;;21.74;59.04;101372.28;5053283;28;20021;-47
2022/09/12 01:49:40;;;;;;;21.13;7.63;;;;;;;21.84;59.51;101378.59;5052694;28;20107;-47
2022/09/12 01:52:25;;;;;;;17.15;7.45;;;;;;;21.87;58.99;101369.88;5053756;28;20466;-47
2022/09/12 01:55:06;;;;;;;14.90;6.50;;;;;;;21.62;59.70;101375.25;5052019;28;20087;-46
2022/09/12 01:57:42;;;;;;;18.95;7.40;;;;;;;21.58;60.10;101374.13;5050863;28;20033;-47
2022/09/12 02:00:11;;;;;;;16.88;7.38;;;;;;;21.51;60.22;101368.94;5035908;28;20060;-47
2022/09/12 02:02:52;;;;;;;21.15;7.70;;;;;;;21.47;60.30;101375.19;5036622;28;20024;-48
2022/09/12 02:05:39;;;;;;;18.25;7.85;;;;;;;21.60;60.26;101375.53;5053151;28;20151;-47
2022/09/12 02:08:11;;;;;;;17.55;7.15;;;;;;;21.30;61.53;101373.47;5052481;28;20037;-49
2022/09/12 02:11:00;;;;;;;19.60;8.20;;;;;;;21.35;61.77;101378.13;5052954;28;20032;-47
2022/09/12 02:13:33;;;;;;;16.30;7.45;;;;;;;21.25;60.60;101375.31;5051419;28;20470;-48
2022/09/12 02:16:24;;;;;;;20.65;7.80;;;;;;;21.24;59.96;101379.94;5052661;28;20094;-47
2022/09/12 02:18:56;;;;;;;19.55;8.60;;;;;;;21.32;61.14;101378.63;5048413;28;20029;-48
2022/09/12 02:21:25;;;;;;;17.58;7.35;;;;;;;21.36;61.50;101387.94;5052868;28;20078;-48
2022/09/12 02:23:56;;;;;;;18.95;7.50;;;;;;;21.09;62.60;101388.81;5052045;28;20025;-49
2022/09/12 02:26:35;;;;;;;17.52;7.20;;;;;;;20.94;63.02;101390.66;5049477;28;20031;-48
2022/09/12 02:29:03;;;;;;;24.35;8.25;;;;;;;20.69;63.35;101389.38;5044759;28;20032;-49
2022/09/12 02:32:11;;;;;;;18.00;7.35;;;;;;;20.84;63.23;101388.69;5052547;28;20471;-48
2022/09/12 02:35:07;;;;;;;12.75;7.35;;;;;;;20.65;63.86;101398.31;5049029;28;20056;-47
2022/09/12 02:38:13;;;;;;;20.17;8.13;;;;;;;20.38;64.87;101392.91;5049210;28;20045;-47
2022/09/12 02:40:40;;;;;;;;;;;;;;;20.19;65.60;101397.88;5032945;28;20050;-49
2022/09/12 02:43:06;;;;;;;15.77;8.57;;;;;;;20.16;66.16;101396.50;5042098;28;19963;-49
2022/09/12 02:45:34;;;;;;;16.65;7.80;;;;;;;20.11;66.51;101393.72;5040462;28;20017;-48
2022/09/12 02:48:20;;;;;;;21.65;8.32;;;;;;;20.12;66.14;101398.06;5033820;28;20786;-48
2022/09/12 02:50:47;;;;;;;19.63;8.35;;;;;;;20.37;65.84;101396.66;5051816;28;20051;-47
2022/09/12 02:53:14;;;;;;;23.80;8.20;;;;;;;20.31;65.62;101399.34;5052418;28;20422;-49
2022/09/12 02:55:41;;;;;;;18.55;7.68;;;;;;;20.15;66.10;101400.25;5051311;28;20529;-47
2022/09/12 02:58:13;;;;;;;20.15;7.60;;;;;;;20.14;65.97;101398.63;5046656;28;20033;-47
2022/09/12 03:00:55;;;;;;;18.17;7.75;;;;;;;20.17;66.13;101389.16;5044025;28;20055;-47
2022/09/12 03:03:58;;;;;;;20.23;8.68;;;;;;;20.16;65.88;101390.25;5034277;28;20036;-47
2022/09/12 03:06:50;;;;;;;21.02;8.75;;;;;;;20.16;65.99;101384.81;5039764;28;20038;-47
2022/09/12 03:09:34;;;;;;;23.15;9.30;;;;;;;20.28;65.41;101389.00;5044368;28;20072;-46
2022/09/12 03:12:29;;;;;;;20.60;8.77;;;;;;;20.24;66.27;101393.28;5035074;28;20030;-47
2022/09/12 03:15:22;;;;;;;23.43;8.97;;;;;;;20.31;65.71;101393.91;5031641;28;20491;-47
2022/09/12 03:18:07;;;;;;;21.30;7.55;;;;;;;20.35;65.25;101393.41;5043064;28;20049;-47
2022/09/12 03:21:02;;;;;;;18.00;9.05;;;;;;;20.15;65.45;101394.00;5039359;28;20438;-48
2022/09/12 03:23:57;;;;;;;18.67;8.90;;;;;;;19.95;65.97;101397.34;5046513;28;20068;-48
2022/09/12 03:27:08;;;;;;;14.93;7.63;;;;;;;20.09;65.39;101408.63;5020844;28;20059;-47
2022/09/12 03:29:36;;;;;;;25.35;7.80;;;;;;;20.10;65.08;101416.53;5024957;28;20511;-47
2022/09/12 03:32:02;;;;;;;16.17;7.45;;;;;;;20.22;64.70;101413.66;5050286;28;20044;-47
2022/09/12 03:34:28;;;;;;;20.52;7.65;;;;;;;20.11;64.79;101411.94;5049070;28;20033;-47
2022/09/12 03:36:54;;;;;;;17.15;7.50;;;;;;;20.05;65.51;101416.47;5049836;28;20047;-47
2022/09/12 03:39:23;;;;;;;22.27;8.57;;;;;;;20.00;65.86;101419.16;5044469;28;20041;-47
2022/09/12 03:41:50;;;;;;;12.20;7.57;;;;;;;19.89;66.55;101429.06;5045212;28;20379;-47
2022/09/12 03:44:17;;;;;;;25.58;8.77;;;;;;;20.16;65.70;101422.84;5049166;28;20060;-47
2022/09/12 03:46:44;;;;;;;17.95;7.32;;;;;;;20.00;66.46;101425.41;5046124;28;20357;-46
2022/09/12 03:49:10;;;;;;;16.75;7.22;;;;;;;20.02;66.36;101428.66;5040793;28;20056;-47
2022/09/12 03:51:38;;;;;;;15.77;7.53;;;;;;;19.81;67.48;101420.53;5050353;28;20032;-49
2022/09/12 03:54:05;;;;;;;21.17;8.00;;;;;;;19.87;66.81;101424.94;5049303;28;20566;-47
2022/09/12 03:56:31;;;;;;;17.73;7.50;;;;;;;20.05;66.50;101427.34;5049993;28;20479;-47
2022/09/12 03:58:57;;;;;;;19.15;7.72;;;;;;;20.09;66.06;101423.03;5034651;28;20055;-47
2022/09/12 04:01:24;;;;;;;15.57;7.20;;;;;;;20.07;65.52;101427.91;5050031;28;20498;-48
2022/09/12 04:03:51;;;;;;;21.02;7.63;;;;;;;19.98;66.27;101429.44;5039735;28;20021;-48
2022/09/12 04:06:22;;;;;;;16.25;7.32;;;;;;;19.92;66.44;101427.72;5034830;28;20029;-46
2022/09/12 04:08:54;;;;;;;12.77;6.55;;;;;;;19.87;67.11;101422.22;5050176;28;20024;-48
2022/09/12 04:11:21;;;;;;;17.05;6.90;;;;;;;19.78;67.14;101428.13;5048616;28;20368;-48
2022/09/12 04:13:48;;;;;;;15.88;6.97;;;;;;;19.90;67.06;101440.75;5048785;28;20025;-48
2022/09/12 04:16:16;;;;;;;15.50;7.13;;;;;;;19.94;66.98;101433.75;5049906;28;20060;-48
2022/09/12 04:18:42;;;;;;;18.55;7.85;;;;;;;20.09;66.66;101431.19;5041744;28;20495;-48
2022/09/12 04:21:12;;;;;;;14.88;6.65;;;;;;;19.99;66.28;101431.91;5053811;28;20501;-48
2022/09/12 04:23:38;;;;;;;13.10;6.70;;;;;;;19.90;67.19;101432.59;5053576;28;20025;-47
2022/09/12 04:26:07;;;;;;;13.00;7.47;;;;;;;19.83;66.95;101435.53;5052159;28;20048;-48
2022/09/12 04:28:36;;;;;;;17.05;6.40;;;;;;;19.74;67.53;101431.59;5054105;28;20029;-47
2022/09/12 04:31:07;;;;;;;13.05;6.85;;;;;;;19.31;69.07;101433.16;5054037;28;20387;-48
2022/09/12 04:33:35;;;;;;;18.00;7.38;;;;;;;19.38;69.44;101433.00;5052504;28;20040;-47
2022/09/12 04:36:11;;;;;;;18.58;6.60;;;;;;;19.59;68.68;101429.50;5040957;28;20519;-47
2022/09/12 04:38:37;;;;;;;16.25;7.13;;;;;;;19.46;69.35;101438.81;5051007;28;20045;-47
2022/09/12 04:41:14;;;;;;;14.82;7.25;;;;;;;19.51;68.75;101433.44;5040774;28;20033;-48
2022/09/12 04:43:41;;;;;;;18.88;7.40;;;;;;;19.28;69.78;101430.13;5053412;28;20025;-47
2022/09/12 04:46:09;;;;;;;16.70;7.32;;;;;;;19.42;69.67;101434.94;5040959;28;20075;-48
2022/09/12 04:48:36;;;;;;;15.23;7.40;;;;;;;19.35;69.69;101431.59;5046394;28;20033;-50
2022/09/12 04:51:13;;;;;;;16.08;7.88;;;;;;;19.04;71.42;101434.91;5053628;28;20130;-48
2022/09/12 04:53:40;;;;;;;19.38;7.78;;;;;;;18.90;71.79;101429.00;5053375;28;20409;-48
2022/09/12 04:56:08;;;;;;;15.55;7.07;;;;;;;18.96;71.68;101428.84;5054038;28;20116;-48
2022/09/12 04:58:36;;;;;;;18.05;7.38;;;;;;;19.07;71.24;101429.00;5052279;28;20029;-47
2022/09/12 05:01:07;;;;;;;20.80;8.27;;;;;;;19.16;71.06;101427.53;5044612;28;20060;-47
2022/09/12 05:03:34;;;;;;;20.27;8.05;;;;;;;18.85;71.65;101428.94;5051032;28;20021;-47
2022/09/12 05:06:07;;;;;;;17.42;7.50;;;;;;;18.85;72.07;101428.94;5053033;28;20033;-46
2022/09/12 05:08:34;;;;;;;19.77;7.68;;;;;;;18.98;71.51;101431.31;5051084;28;20100;-46
2022/09/12 05:11:25;;;;;;;21.17;7.88;;;;;;;18.84;71.98;101417.25;5045234;28;20120;-45
2022/09/12 05:13:52;;;;;;;17.52;7.35;;;;;;;18.88;71.68;101420.31;5042663;28;20049;-48
2022/09/12 05:16:20;;;;;;;14.85;7.50;;;;;;;18.79;72.37;101421.78;5052604;28;20475;-49
2022/09/12 05:18:47;;;;;;;20.42;7.57;;;;;;;18.73;72.80;101420.88;5045277;28;20036;-48
2022/09/12 05:21:17;;;;;;;24.90;8.10;;;;;;;18.88;72.46;101420.31;5053969;28;20074;-48
2022/09/12 05:23:43;;;;;;;14.15;7.32;;;;;;;18.76;72.18;101416.84;5037337;28;20483;-49
2022/09/12 05:26:17;;;;;;;16.10;7.25;;;;;;;18.71;72.46;101418.41;5033990;28;20044;-48
2022/09/12 05:28:44;;;;;;;15.23;7.35;;;;;;;18.46;73.50;101405.22;5042212;28;20075;-48
2022/09/12 05:31:14;;;;;;;17.08;7.30;;;;;;;18.43;73.27;101410.28;5051548;28;20044;-49
2022/09/12 05:33:44;;;;;;;15.38;7.95;;;;;;;18.20;74.37;101401.22;5050038;28;20048;-48
2022/09/12 05:36:18;;;;;;;17.65;7.22;;;;;;;18.20;74.22;101394.97;5049171;28;20033;-48
2022/09/12 05:38:45;;;;;;;19.67;7.32;;;;;;;18.07;74.96;101400.69;5051378;28;20053;-47
2022/09/12 05:41:26;;;;;;;16.75;7.70;;;;;;;18.03;74.91;101396.81;5040873;28;20495;-47
2022/09/12 05:43:57;;;;;;;17.67;7.22;;;;;;;18.13;74.61;101403.25;5039813;28;20036;-48
2022/09/12 05:46:35;;;;;;;13.52;7.60;;;;;;;18.09;74.87;101403.97;5052067;28;20036;-48
2022/09/12 05:49:10;;;;;;;13.25;7.10;;;;;;;18.01;75.15;101396.25;5047762;28;20033;-48
2022/09/12 05:51:37;;;;;;;;;;;;;;;18.03;75.16;101399.53;5037195;28;20028;-48
2022/09/12 05:54:06;;;;;;;12.45;7.10;;;;;;;17.89;75.33;101391.69;5052045;28;19917;-47
2022/09/12 05:56:37;;;;;;;10.57;6.72;;;;;;;18.07;74.35;101401.53;5051953;28;20037;-49
2022/09/12 05:59:16;;;;;;;23.40;8.38;;;;;;;17.81;75.35;101399.38;5051327;28;20032;-48
2022/09/12 06:01:43;;;;;;;14.98;7.05;;;;;;;17.91;75.34;101397.69;5050427;28;20064;-48
2022/09/12 06:04:10;;;;;;;18.75;7.05;;;;;;;17.92;75.11;101401.22;5039105;28;20400;-48
2022/09/12 06:06:40;;;;;;;16.75;7.57;;;;;;;17.86;75.24;101404.91;5052308;28;20092;-48
2022/09/12 06:09:07;;;;;;;16.23;7.40;;;;;;;17.80;75.89;101403.16;5051836;28;20036;-48
2022/09/12 06:11:36;;;;;;;17.80;7.90;;;;;;;17.78;75.87;101408.00;5050959;28;20375;-48
2022/09/12 06:14:02;;;;;;;17.63;8.35;;;;;;;17.82;75.64;101403.72;5051712;28;20167;-48
2022/09/12 06:16:31;;;;;;;15.50;7.53;;;;;;;17.68;76.22;101397.75;5051015;28;20444;-47
2022/09/12 06:19:03;;;;;;;20.55;7.60;;;;;;;17.78;76.30;101402.56;5047558;28;20034;-48
2022/09/12 06:21:30;;;;;;;14.77;7.90;;;;;;;17.62;76.87;101396.81;5032957;28;20171;-47
2022/09/12 06:23:59;;;;;;;17.10;8.25;;;;;;;17.44;77.93;101398.88;5041169;28;20364;-49
2022/09/12 06:26:28;;;;;;;12.40;7.32;;;;;;;17.55;77.51;101398.84;5052236;28;20162;-48
2022/09/12 06:28:56;;;;;;;19.83;8.00;;;;;;;17.49;77.79;101399.78;5051472;28;20116;-48
2022/09/12 06:31:42;;;;;;;19.63;8.38;;;;;;;17.60;77.29;101407.06;5051423;28;20384;-50
2022/09/12 06:34:13;;;;;;;15.63;8.25;;;;;;;17.59;77.27;101402.69;5050238;28;20143;-50
2022/09/12 06:36:44;;;;;;;16.92;8.00;;;;;;;17.66;77.03;101403.41;5044487;28;20126;-47
2022/09/12 06:39:15;;;;;;;14.27;7.72;;;;;;;17.62;77.18;101398.69;5050337;28;20593;-47
2022/09/12 06:41:41;;;;;;;14.93;7.65;;;;;;;17.64;76.92;101405.50;5038375;28;20040;-47
2022/09/12 06:44:20;;;;;;;20.85;7.88;;;;;;;17.76;76.26;101402.78;5051514;28;20372;-47
2022/09/12 06:46:47;;;;;;;16.17;7.78;;;;;;;17.68;76.71;101395.84;5050780;28;20025;-49
2022/09/12 06:49:14;;;;;;;15.00;6.97;;;;;;;17.69;77.01;101402.09;5046621;28;20025;-47
2022/09/12 06:51:41;;;;;;;16.05;7.22;;;;;;;17.75;76.70;101411.16;5051980;28;20111;-47
2022/09/12 06:54:09;;;;;;;17.98;6.95;;;;;;;17.73;76.46;101405.19;5038996;28;20037;-47
2022/09/12 06:56:36;;;;;;;16.42;7.30;;;;;;;17.68;76.28;101411.28;5041551;28;20064;-47
2022/09/12 06:59:02;;;;;;;17.75;8.45;;;;;;;17.52;76.96;101412.00;5037745;28;20025;-47
2022/09/12 07:01:30;;;;;;;14.75;6.95;;;;;;;17.47;77.54;101411.91;5044163;28;20025;-48
2022/09/12 07:04:02;;;;;;;18.13;8.15;;;;;;;17.57;76.97;101412.94;5049665;28;20036;-47
2022/09/12 07:06:34;;;;;;;17.58;7.43;;;;;;;17.59;76.58;101410.81;5050723;28;20529;-47
2022/09/12 07:09:03;;;;;;;17.00;7.50;;;;;;;17.51;76.63;101405.78;5046280;28;20571;-50
2022/09/12 07:11:32;;;;;;;21.95;8.50;;;;;;;17.46;77.04;101402.97;5031871;28;20462;-48
2022/09/12 07:14:01;;;;;;;16.58;7.72;;;;;;;17.45;76.43;101405.91;5048223;28;20437;-47
2022/09/12 07:16:28;;;;;;;13.05;7.32;;;;;;;17.34;77.33;101399.47;5050392;28;20135;-47
2022/09/12 07:18:56;;;;;;;15.65;7.45;;;;;;;17.41;77.43;101408.25;5039698;28;20036;-48
2022/09/12 07:21:23;;;;;;;23.55;7.65;;;;;;;17.30;77.83;101403.69;5047802;28;20029;-48
2022/09/12 07:23:50;;;;;;;15.30;7.63;;;;;;;17.37;77.40;101398.97;5041907;28;20037;-48
2022/09/12 07:26:17;;;;;;;21.73;7.75;;;;;;;17.25;77.54;101398.97;5038307;28;20068;-50
2022/09/12 07:28:43;;;;;;;17.83;7.93;;;;;;;17.22;77.68;101399.47;5048007;28;20021;-49
2022/09/12 07:31:15;;;;;;;20.27;7.63;;;;;;;17.28;77.23;101398.53;5050156;28;20024;-47
2022/09/12 07:33:42;;;;;;;18.15;7.35;;;;;;;17.32;77.24;101397.00;5048321;28;20496;-49
2022/09/12 07:36:14;;;;;;;20.65;7.85;;;;;;;17.45;76.70;101392.38;5043617;28;20032;-47
2022/09/12 07:38:41;;;;;;;14.23;7.15;;;;;;;17.44;76.51;101388.84;5046013;28;20199;-47
2022/09/12 07:41:22;;;;;;;17.40;8.13;;;;;;;17.38;76.98;101392.53;5043857;28;20029;-48
2022/09/12 07:43:55;;;;;;;15.95;8.13;;;;;;;17.44;76.80;101386.16;5050578;28;20040;-48
2022/09/12 07:46:23;;;;;;;16.77;7.53;;;;;;;17.44;76.59;101390.75;5050321;28;20437;-47
2022/09/12 07:48:51;;;;;;;18.63;7.85;;;;;;;17.38;76.58;101379.00;5038879;28;20053;-48
2022/09/12 07:51:19;;;;;;;18.23;8.98;;;;;;;17.30;77.31;101382.03;5051611;28;20061;-47
2022/09/12 07:53:46;;;;;;;16.05;8.10;;;;;;;17.31;77.21;101381.78;5051717;28;20036;-50
2022/09/12 07:56:12;;;;;;;15.93;7.72;;;;;;;17.31;76.97;101383.69;5054642;28;20037;-49
2022/09/12 07:58:40;;;;;;;18.00;8.57;;;;;;;17.25;77.11;101382.75;5054365;28;20036;-48
2022/09/12 08:01:09;;;;;;;16.27;7.95;;;;;;;17.37;77.15;101385.44;5046406;28;20426;-48
2022/09/12 08:03:36;;;;;;;20.85;8.32;;;;;;;17.50;76.56;101389.78;5049777;28;20537;-48
2022/09/12 08:06:14;;;;;;;17.38;7.90;;;;;;;17.53;76.51;101389.28;5054956;28;20513;-49
2022/09/12 08:08:41;;;;;;;16.67;7.85;;;;;;;17.51;76.36;101381.41;5040824;28;20048;-48
2022/09/12 08:11:11;;;;;;;15.50;8.70;;;;;;;17.28;77.16;101378.75;5055204;28;20029;-48
2022/09/12 08:13:39;;;;;;;16.58;8.18;;;;;;;17.48;76.82;101379.19;5051285;28;20194;-49
2022/09/12 08:16:11;;;;;;;16.10;7.63;;;;;;;17.44;76.59;101383.44;5044726;28;20068;-48
2022/09/12 08:18:38;;;;;;;15.40;8.15;;;;;;;17.37;76.67;101386.25;5046505;28;20033;-48
2022/09/12 08:21:07;;;;;;;19.95;7.57;;;;;;;17.40;76.79;101376.84;5039640;28;20056;-48
2022/09/12 08:23:33;;;;;;;21.13;8.32;;;;;;;17.36;77.17;101383.78;5046989;28;20029;-48
2022/09/12 08:26:02;;;;;;;18.90;8.60;;;;;;;17.33;76.85;101379.69;5037187;28;20112;-48
2022/09/12 08:28:30;;;;;;;14.93;8.02;;;;;;;17.35;76.62;101376.75;5035036;28;20056;-48
2022/09/12 08:31:02;;;;;;;19.17;7.85;;;;;;;17.47;76.48;101369.41;5036986;28;20506;-49
2022/09/12 08:33:32;;;;;;;19.40;8.63;;;;;;;17.46;76.53;101372.38;5048458;28;20051;-47
2022/09/12 08:36:23;;;;;;;22.13;8.13;;;;;;;17.36;77.17;101368.38;5034874;28;20033;-48
2022/09/12 08:38:57;;;;;;;27.38;9.13;;;;;;;17.39;77.19;101365.22;5039245;28;20068;-48
2022/09/12 08:41:30;;;;;;;22.85;9.13;;;;;;;17.31;77.30;101359.34;5052386;28;20037;-51
2022/09/12 08:44:18;;;;;;;21.70;8.65;;;;;;;17.26;77.81;101362.75;5052541;28;20024;-49
2022/09/12 08:47:02;;;;;;;19.95;8.50;;;;;;;17.29;77.40;101354.16;5050591;28;20029;-50
2022/09/12 08:49:52;;;;;;;17.60;9.18;;;;;;;17.17;77.92;101353.38;5053782;28;20367;-47
2022/09/12 08:52:24;;;;;;;21.80;9.05;;;;;;;17.19;77.88;101350.41;5052977;28;20083;-48
2022/09/12 08:54:50;;;;;;;16.88;8.25;;;;;;;17.11;77.92;101343.50;5052853;28;20029;-47
2022/09/12 08:57:17;;;;;;;23.20;8.43;;;;;;;17.00;78.56;101350.56;5052933;28;20028;-48
2022/09/12 08:59:45;;;;;;;21.73;8.52;;;;;;;17.10;78.46;101352.66;5047659;28;20028;-48
2022/09/12 09:02:37;;;;;;;18.52;9.02;;;;;;;17.14;77.91;101346.53;5047700;28;20029;-50
2022/09/12 09:05:06;;;;;;;26.42;9.13;;;;;;;17.15;77.82;101345.47;5041725;28;20112;-48
2022/09/12 09:07:53;;;;;;;20.13;8.80;;;;;;;17.08;78.48;101347.47;5047968;28;20120;-46
2022/09/12 09:10:44;;;;;;;17.98;8.77;;;;;;;17.13;78.49;101341.38;5051610;28;20037;-48
2022/09/12 09:16:43;;;;;;;19.23;8.93;;;;;;;16.95;79.26;101336.09;5035051;28;20080;-47
2022/09/12 09:19:24;;;;;;;19.25;8.98;;;;;;;16.97;78.67;101331.28;5043090;28;20186;-47
2022/09/12 09:22:12;;;;;;;22.20;9.20;;;;;;;17.03;78.64;101331.16;5038753;28;20476;-48
2022/09/12 09:24:58;;;;;;;20.58;9.30;;;;;;;16.83;79.35;101330.69;5047945;28;20037;-48
2022/09/12 09:27:46;;;;;;;22.48;9.38;;;;;;;16.99;78.76;101319.19;5035687;28;20049;-50
2022/09/12 09:30:21;;;;;;;19.60;8.27;;;;;;;17.02;78.42;101320.56;5049582;28;20036;-49
2022/09/12 09:32:52;;;;;;;20.90;8.80;;;;;;;16.96;78.85;101316.94;5038363;28;20025;-48
2022/09/12 09:35:19;;;;;;;19.90;9.07;;;;;;;16.96;78.96;101316.13;5051031;28;20026;-51
2022/09/12 09:38:20;;;;;;;21.40;9.27;;;;;;;16.92;78.52;101313.03;5038932;28;20140;-47
2022/09/12 09:41:14;;;;;;;21.55;8.73;;;;;;;16.88;78.80;101322.72;5037154;28;20402;-49
2022/09/12 09:43:40;;;;;;;19.05;8.65;;;;;;;16.83;79.03;101320.72;5051034;28;20029;-49
2022/09/12 09:46:07;;;;;;;16.00;8.50;;;;;;;16.94;79.06;101320.94;5046169;28;20091;-47
2022/09/12 09:48:36;;;;;;;18.25;9.05;;;;;;;16.97;78.86;101315.03;5048486;28;20029;-48
2022/09/12 09:51:06;;;;;;;18.23;8.88;;;;;;;17.01;78.68;101311.63;5033572;28;20428;-47
2022/09/12 09:53:42;;;;;;;21.13;9.10;;;;;;;16.84;78.73;101316.13;5040255;28;20688;-50
2022/09/12 09:56:16;;;;;;;18.88;8.20;;;;;;;17.03;78.33;101314.09;5033209;28;20056;-48
2022/09/12 09:58:42;;;;;;;19.17;9.27;;;;;;;16.97;78.72;101323.16;5039448;28;20021;-48
2022/09/12 10:01:17;;;;;;;25.08;9.63;;;;;;;16.99;78.38;101313.75;5041693;28;20045;-48
2022/09/12 10:03:53;;;;;;;;;;;;;;;16.98;78.80;101313.97;5043865;28;20036;-48
2022/09/12 10:06:19;;;;;;;21.42;9.20;;;;;;;16.97;78.84;101323.97;5051496;28;20359;-49
2022/09/12 10:08:47;;;;;;;21.95;9.85;;;;;;;16.79;79.25;101316.81;5051044;28;20499;-48
2022/09/12 10:11:21;;;;;;;21.70;9.30;;;;;;;16.79;79.11;101313.31;5052336;28;20033;-49
2022/09/12 10:13:56;;;;;;;21.20;9.07;;;;;;;16.85;79.10;101315.88;5051734;28;20478;-48
2022/09/12 10:16:24;;;;;;;19.48;8.68;;;;;;;16.85;78.59;101318.59;5049914;28;20529;-52
2022/09/12 10:18:51;;;;;;;19.42;8.85;;;;;;;16.87;79.18;101318.34;5040478;28;20039;-48
2022/09/12 10:21:24;;;;;;;21.42;9.02;;;;;;;16.80;79.28;101313.06;5048228;28;20029;-49
2022/09/12 10:24:36;;;;;;;19.25;9.63;;;;;;;16.80;79.56;101314.94;5051825;28;20029;-47
2022/09/12 10:27:11;;;;;;;24.95;9.77;;;;;;;16.83;79.18;101315.31;5041545;28;20068;-48
2022/09/12 10:30:08;;;;;;;24.50;9.88;;;;;;;16.76;79.47;101325.38;5043047;28;20021;-48
2022/09/12 10:32:41;;;;;;;25.50;9.30;;;;;;;16.84;78.96;101321.53;5035658;28;20094;-47
2022/09/12 10:35:17;;;;;;;17.77;9.63;;;;;;;16.93;78.59;101319.28;5051278;28;20025;-48
2022/09/12 10:38:13;;;;;;;16.40;8.38;;;;;;;16.87;78.41;101327.28;5050315;28;20124;-47
2022/09/12 10:40:41;;;;;;;;;;;;;;;16.83;78.46;101320.72;5047785;28;20068;-48
2022/09/12 10:43:25;;;;;;;20.35;9.88;;;;;;;16.88;77.95;101318.13;5050531;28;20325;-49
2022/09/12 10:45:58;;;;;;;18.38;9.45;;;;;;;16.96;78.03;101322.34;5050134;28;20451;-47
2022/09/12 10:48:30;;;;;;;20.77;9.13;;;;;;;16.95;77.58;101314.47;5046591;28;20071;-48
2022/09/12 10:50:58;;;;;;;23.45;10.02;;;;;;;16.77;78.89;101307.31;5050683;28;20032;-47
2022/09/12 10:53:28;;;;;;;21.20;9.65;;;;;;;16.85;78.11;101306.94;5051187;28;20041;-46
2022/09/12 10:56:17;;;;;;;20.73;9.65;;;;;;;16.85;78.50;101307.78;5049959;28;20033;-46
2022/09/12 10:59:02;;;;;;;21.02;9.50;;;;;;;16.93;78.46;101308.47;5040350;28;20033;-47
2022/09/12 11:01:40;;;;;;;29.65;11.35;;;;;;;16.73;78.90;101303.44;5042908;28;20111;-46
2022/09/12 11:04:38;;;;;;;19.67;9.77;;;;;;;16.63;79.47;101307.50;5046626;28;20037;-47
2022/09/12 11:07:30;;;;;;;20.95;9.85;;;;;;;16.70;79.07;101301.97;5044153;28;20094;-47
2022/09/12 11:10:28;;;;;;;24.35;10.38;;;;;;;16.68;78.95;101303.28;5042457;28;20040;-47
2022/09/12 11:13:32;;;;;;;26.92;10.45;;;;;;;16.69;79.00;101302.22;5049227;28;20514;-47
2022/09/12 11:16:22;;;;;;;23.17;10.18;;;;;;;16.62;79.37;101305.03;5031929;28;20040;-47
2022/09/12 11:19:09;;;;;;;21.33;9.65;;;;;;;16.52;79.33;101305.63;5042735;28;20041;-47
2022/09/12 11:21:47;;;;;;;21.50;10.77;;;;;;;16.59;79.25;101295.50;5044135;28;20178;-48
2022/09/12 11:24:25;;;;;;;25.88;10.23;;;;;;;16.57;79.15;101294.13;5043031;28;20026;-47
2022/09/12 11:27:22;;;;;;;16.17;9.93;;;;;;;16.56;79.14;101297.88;5043683;28;20471;-48
2022/09/12 11:29:50;;;;;;;24.80;11.18;;;;;;;16.55;79.37;101291.66;5048513;28;20083;-49
2022/09/12 11:32:22;;;;;;;25.00;9.63;;;;;;;16.52;79.51;101294.00;5033127;28;20053;-49
2022/09/12 11:35:12;;;;;;;23.58;10.32;;;;;;;16.55;79.84;101288.94;5032371;28;20043;-48
2022/09/12 11:37:44;;;;;;;20.15;9.88;;;;;;;16.56;79.83;101285.19;5031733;28;20041;-47
2022/09/12 11:40:34;;;;;;;23.45;11.68;;;;;;;16.58;79.41;101283.06;5031252;28;20017;-48
2022/09/12 11:43:18;;;;;;;24.23;10.73;;;;;;;16.55;79.64;101288.13;5036759;28;20028;-51
2022/09/12 11:45:48;;;;;;;19.45;10.38;;;;;;;16.65;79.23;101293.75;5045269;28;20447;-48
2022/09/12 11:48:33;;;;;;;22.38;10.23;;;;;;;16.51;79.83;101290.47;5040138;28;20038;-48
2022/09/12 11:51:04;;;;;;;20.05;10.15;;;;;;;16.59;79.66;101291.97;5049520;28;20040;-48
2022/09/12 11:53:37;;;;;;;23.90;10.38;;;;;;;16.67;79.35;101282.72;5031662;28;20083;-47